Date,TemperatureHighF,TemperatureAvgF,TemperatureLowF,DewpointHighF,DewpointAvgF,DewpointLowF,HumidityHigh,HumidityAvg,HumidityLow,PressureMaxIn,PressureMinIn,WindSpeedMaxMPH,WindSpeedAvgMPH,GustSpeedMaxMPH,PrecipitationSumIn
2012-1-5,59.2,54.2,47.1,51.1,46.6,39.2,92,76,53,30.35,30.21,11,4,11,0.00
2012-1-6,56.7,48.9,43.0,46.9,44.7,40.1,97,86,68,30.27,30.17,8,2,9,0.00
2012-1-7,66.9,54.4,41.2,43.0,31.4,16.7,88,50,18,30.30,30.18,24,6,27,0.00
2012-1-8,64.2,55.7,44.2,33.6,25.2,19.2,62,32,20,30.29,30.21,16,4,17,0.00
2012-1-9,63.3,49.7,40.6,43.9,38.3,31.6,87,66,40,30.32,30.20,12,4,12,0.00
2012-1-10,63.7,50.7,41.0,42.1,36.9,32.0,87,62,34,30.24,30.12,16,4,16,0.00
2012-1-11,64.8,49.5,39.7,44.8,37.4,32.4,82,65,32,30.21,30.07,9,3,10,0.00
2012-1-12,65.3,58.6,46.0,39.9,29.1,23.9,78,36,21,30.19,30.09,22,6,23,0.00
2012-1-13,66.0,52.7,41.4,39.4,33.9,25.7,79,52,30,30.29,30.18,22,4,23,0.00
2012-1-14,62.1,48.7,39.2,46.0,39.0,33.4,91,71,44,30.27,30.14,11,3,12,0.00
2012-1-15,52.5,46.8,41.5,45.0,38.3,27.0,94,73,53,30.23,30.07,24,8,26,0.00
2012-1-16,49.6,42.2,36.5,33.1,27.3,16.9,78,57,29,30.39,30.23,16,5,20,0.00
2012-1-17,49.8,41.4,32.5,37.2,32.3,26.8,83,71,53,30.49,30.39,11,2,11,0.00
2012-1-18,51.6,43.1,34.2,42.1,36.5,30.2,87,78,67,30.48,30.32,10,2,11,0.00
2012-1-19,50.4,47.0,42.4,47.8,42.5,38.8,95,84,72,30.32,30.09,20,7,23,0.13
2012-1-20,56.7,53.5,49.5,55.2,51.8,47.8,97,94,87,30.10,29.75,28,10,31,1.56
2012-1-23,53.2,49.6,45.3,50.0,47.1,43.3,95,91,88,30.22,29.93,9,-24,9,0.02
2012-1-24,54.3,48.6,43.3,49.3,46.0,41.7,98,91,79,30.49,30.22,10,2,11,0.00
2012-1-25,64.0,55.0,48.7,52.5,49.5,46.0,94,83,64,30.50,30.38,14,3,14,0.00
2012-1-26,57.0,52.9,50.2,54.3,51.7,49.3,98,96,89,30.41,30.30,13,4,15,0.00
2012-1-27,66.6,52.0,44.1,51.4,42.0,19.6,98,73,17,30.34,30.25,10,3,11,0.00
2012-1-28,63.7,50.8,40.3,43.7,32.6,18.1,87,55,19,30.40,30.29,22,5,26,0.01
2012-1-29,64.0,53.6,44.8,47.5,44.1,39.0,86,71,48,30.33,30.18,16,4,16,0.00
2012-1-30,57.0,51.6,46.9,49.3,46.9,42.6,92,84,70,30.19,30.07,12,3,13,0.00
2012-1-31,55.0,49.8,47.1,48.0,45.9,42.4,93,87,76,30.26,30.13,16,4,17,0.00
2012-2-1,58.5,51.7,47.5,50.4,47.0,43.7,96,85,65,30.34,30.24,14,4,17,0.00
2012-2-2,66.0,52.4,45.0,48.0,43.1,28.9,93,74,25,30.31,30.02,9,3,9,0.00
2012-2-3,59.7,51.7,42.3,45.7,38.8,26.6,91,63,34,30.12,30.05,24,6,25,0.00
2012-2-4,63.9,53.2,43.2,44.2,37.9,31.8,91,59,37,30.16,30.10,19,4,23,0.00
2012-2-5,63.9,55.1,44.2,41.2,34.8,29.7,86,50,28,30.17,30.04,18,5,19,0.00
2012-2-6,62.8,54.5,45.7,49.1,40.0,35.4,86,59,41,30.04,29.82,15,4,19,0.11
2012-2-7,57.0,53.2,50.5,49.6,47.8,44.8,92,82,68,30.18,29.82,13,4,16,0.28
2012-2-8,63.3,53.7,45.3,51.6,48.5,44.4,98,84,58,30.31,30.16,13,4,16,0.01
2012-2-9,69.3,55.1,45.9,52.2,48.5,44.1,97,80,48,30.33,30.19,15,4,16,0.00
2012-2-10,57.0,52.6,48.4,54.0,49.6,45.3,96,90,80,30.26,30.13,17,5,18,0.03
2012-2-11,55.8,51.9,48.9,50.0,48.0,44.8,92,87,78,30.14,30.06,13,4,14,0.03
2012-2-12,53.2,50.1,46.6,47.3,45.4,38.5,94,84,63,30.14,30.02,19,6,22,0.09
2012-2-13,54.7,49.0,45.3,46.0,42.7,39.6,94,79,63,30.07,29.96,30,8,30,0.03
2012-2-14,56.7,48.3,42.3,46.8,41.1,38.5,91,77,60,30.18,30.05,24,6,27,0.04
2012-2-15,58.5,50.0,43.2,47.5,32.1,20.3,93,53,23,30.23,30.11,27,9,27,0.03
2012-2-16,64.8,52.9,44.8,47.1,34.7,21.0,90,55,19,30.33,30.22,15,6,15,0.00
2012-2-17,58.1,51.1,43.9,50.9,47.1,41.0,94,87,68,30.33,30.23,13,4,15,0.00
2012-2-18,59.2,51.7,46.2,49.1,42.9,35.1,95,73,50,30.26,30.15,24,6,26,0.00
2012-2-19,53.2,47.3,43.3,42.8,37.5,32.5,83,69,53,30.22,30.11,18,5,18,0.00
2012-2-20,57.7,51.0,47.3,47.8,45.3,42.1,90,81,64,30.28,30.15,15,4,15,0.01
2012-2-21,59.5,51.3,45.3,50.5,47.6,43.5,96,88,71,30.37,30.27,9,2,10,0.00
2012-2-22,75.4,59.3,49.5,51.4,47.5,40.6,92,68,30,30.34,30.14,16,4,18,0.00
2012-2-23,74.3,62.2,52.3,49.1,37.3,19.0,86,46,13,30.15,30.01,23,8,23,0.00
2012-2-24,68.2,58.1,51.1,48.7,35.5,19.6,83,47,17,30.25,30.04,23,5,26,0.00
2012-2-25,59.4,51.4,46.4,44.2,35.6,28.8,78,56,32,30.40,30.24,26,9,30,0.00
2012-2-26,52.0,45.5,38.8,36.5,33.4,21.7,80,64,31,30.25,29.91,19,6,21,0.00
2012-2-27,52.5,44.5,37.2,38.3,35.2,31.6,88,71,47,30.04,29.86,14,4,16,0.00
2012-2-28,52.0,46.8,39.0,44.4,36.6,32.0,87,68,50,30.29,30.03,36,9,36,0.02
2012-2-29,52.2,49.0,46.2,49.1,43.6,39.0,94,82,64,30.31,30.09,34,10,36,0.53
2012-3-1,55.9,48.6,44.4,48.9,44.3,39.6,93,85,68,30.32,30.25,22,8,22,0.34
2012-3-2,62.1,50.4,41.5,45.5,35.2,26.1,85,60,29,30.43,30.31,9,4,12,0.00
2012-3-3,67.8,53.9,40.5,43.9,37.0,32.5,81,55,28,30.41,30.29,16,5,22,0.00
2012-3-4,73.2,60.0,45.3,49.8,43.1,38.5,89,57,33,30.30,30.10,14,5,16,0.00
2012-3-5,55.8,49.4,46.0,48.4,45.1,43.3,97,85,72,30.16,30.05,12,5,17,0.01
2012-3-6,55.9,49.9,45.3,46.9,33.3,20.5,91,55,28,30.13,29.99,31,12,34,0.00
2012-3-7,59.0,48.4,43.3,29.8,22.1,11.7,55,38,16,30.25,30.13,17,8,18,0.00
2012-3-12,56.7,54.3,50.5,47.7,43.2,39.4,80,66,54,30.11,29.98,23,-9,27,0.00
2012-3-13,53.8,52.7,51.4,51.3,49.8,47.5,94,90,80,30.04,29.92,28,14,33,0.40
2012-3-14,56.1,54.2,53.1,54.7,53.1,51.3,98,96,93,30.17,30.01,20,8,23,0.31
2012-3-15,57.0,54.5,53.2,55.8,53.6,51.8,98,97,92,30.21,30.11,18,6,20,0.01
2012-3-16,55.9,53.6,48.7,54.3,51.6,42.3,98,93,72,30.12,29.79,26,10,30,0.50
2012-3-17,51.8,46.3,41.0,43.7,40.0,34.5,95,80,54,29.79,29.58,29,7,31,0.51
2012-3-18,51.8,46.7,43.9,38.5,33.9,23.7,80,62,35,30.01,29.70,33,12,33,0.00
2012-3-19,54.0,47.3,39.9,37.4,33.3,27.1,78,59,37,30.15,30.00,15,4,16,0.00
2012-3-20,60.3,53.4,48.7,48.6,41.6,35.4,86,65,50,30.26,30.15,10,3,11,0.00
2012-3-21,64.6,53.7,48.4,52.2,49.1,45.7,97,85,58,30.24,30.03,13,4,13,0.00
2012-3-22,58.5,52.3,46.6,51.1,41.1,20.1,97,70,24,30.08,29.99,26,8,27,0.00
2012-3-23,56.3,49.8,41.7,42.4,38.3,32.7,84,66,44,30.15,29.93,21,6,22,0.00
2012-3-24,53.4,46.6,43.2,44.2,41.3,32.2,93,83,46,29.97,29.88,26,4,28,0.54
2012-3-25,56.7,48.4,43.0,45.5,42.1,39.7,94,80,58,29.96,29.83,15,4,17,0.78
2012-3-26,57.9,50.5,42.4,42.8,40.7,37.8,87,70,50,30.15,29.96,17,7,19,0.00
2012-3-27,56.5,53.2,51.3,52.0,46.4,41.2,95,78,61,30.08,29.92,31,12,38,0.88
2012-3-28,59.7,55.0,50.4,52.5,51.0,45.9,94,87,63,30.18,29.99,20,7,21,0.91
2012-3-29,58.8,53.1,50.4,51.4,49.7,48.0,95,88,74,30.20,30.13,15,5,16,0.00
2012-3-30,59.0,55.8,53.1,53.6,52.3,51.1,95,88,81,30.17,29.95,22,6,22,0.00
2012-3-31,58.6,53.9,48.4,53.6,47.7,42.6,93,80,63,30.09,29.75,31,12,40,0.18
2012-4-1,58.1,51.3,46.2,43.9,39.3,34.7,84,64,45,30.34,30.09,27,10,29,0.19
2012-4-2,63.1,53.7,45.7,46.9,41.3,36.1,83,65,39,30.32,30.11,18,5,18,0.00
2012-4-3,59.7,52.9,48.0,50.9,45.7,39.4,91,77,62,30.17,30.06,24,6,26,0.01
2012-4-4,58.1,50.6,44.8,42.3,37.5,28.2,85,62,34,30.27,30.16,28,8,30,0.01
2012-4-5,55.8,48.0,41.2,38.1,34.1,29.3,76,59,41,30.24,30.14,25,8,29,0.00
2012-4-6,60.1,49.3,38.8,39.6,34.2,18.5,85,59,22,30.34,30.22,13,4,14,0.00
2012-4-7,64.8,51.9,39.6,45.5,38.6,31.3,82,62,34,30.23,30.08,16,4,18,0.00
2012-4-8,62.1,51.2,41.5,46.4,41.9,35.8,87,72,43,30.13,30.05,20,4,22,0.00
2012-4-9,66.0,53.2,43.9,47.1,41.8,29.3,87,68,26,30.07,29.87,22,4,24,0.00
2012-4-10,55.0,53.0,51.4,51.4,49.3,42.3,96,88,65,29.95,29.86,15,5,22,0.29
2012-4-11,57.2,53.5,49.5,50.5,48.0,45.7,96,82,68,30.03,29.86,25,9,28,0.41
2012-4-12,58.5,53.1,48.0,49.3,45.2,36.1,93,75,49,30.09,29.85,30,11,32,0.53
2012-4-13,56.5,50.7,46.0,47.8,42.2,37.6,93,74,53,29.93,29.77,27,9,28,0.87
2012-4-14,62.4,53.0,46.9,49.5,41.9,36.7,87,67,43,30.19,29.93,17,7,20,0.00
2012-4-15,57.9,52.7,49.8,50.5,47.9,37.4,91,84,51,30.29,30.19,16,6,18,0.00
2012-4-16,61.0,54.3,48.9,50.4,47.5,44.1,90,78,58,30.30,30.23,15,6,17,0.00
2012-4-17,60.6,54.5,51.4,53.4,50.1,46.2,94,85,67,30.25,30.13,20,6,20,0.00
2012-4-18,68.4,57.2,50.5,53.6,49.4,43.3,89,76,50,30.22,30.14,18,6,20,0.00
2012-4-19,66.2,59.2,54.3,58.1,54.4,51.3,92,84,73,30.22,30.11,15,4,15,0.00
2012-4-20,74.5,62.8,55.4,59.9,55.4,51.3,94,78,56,30.13,30.00,13,4,13,0.00
2012-4-21,80.1,64.1,55.6,59.2,54.5,51.4,90,73,47,30.04,29.88,12,4,12,0.00
2012-4-22,62.2,55.8,51.4,55.2,52.4,50.0,96,88,77,29.98,29.92,15,7,17,0.00
2012-4-23,61.9,57.1,53.4,53.2,51.7,50.4,92,82,70,30.06,29.96,28,13,30,0.00
2012-4-24,67.8,60.3,57.0,55.4,53.5,52.3,87,79,63,30.10,30.00,21,5,22,0.00
2012-4-25,68.5,59.9,55.2,56.7,53.8,51.3,95,81,61,30.07,29.82,23,4,23,0.11
2012-4-26,61.0,56.3,52.2,55.2,46.7,37.0,96,72,44,30.25,29.82,22,10,26,0.18
2012-4-27,66.6,57.1,48.6,50.5,43.3,35.2,78,61,39,30.29,30.17,16,5,16,0.00
2012-4-28,65.7,58.8,50.7,56.1,50.3,45.3,84,74,57,30.19,29.94,17,5,18,0.00
2012-4-29,66.6,58.0,53.2,55.9,52.5,50.4,91,82,64,29.98,29.91,15,6,17,0.00
2012-4-30,71.6,58.1,52.0,57.2,51.0,47.3,92,78,52,30.03,29.95,21,7,23,0.00
2012-5-1,65.5,56.0,50.7,49.3,46.3,41.5,90,71,44,29.99,29.91,20,6,21,0.00
2012-5-2,62.1,52.8,47.8,48.6,44.6,41.0,86,74,54,30.04,29.94,23,6,23,0.00
2012-5-3,57.9,54.0,50.4,53.8,50.0,43.3,94,86,75,30.15,30.01,20,7,21,0.03
2012-5-4,62.8,55.7,50.7,52.2,45.4,42.3,94,69,49,30.26,30.14,23,9,25,0.00
2012-5-5,73.8,59.2,49.6,52.2,45.3,34.5,84,63,26,30.27,30.09,14,4,14,0.00
2012-5-6,80.1,63.4,52.9,52.3,46.0,31.8,87,59,19,30.11,30.04,15,5,19,0.00
2012-5-7,81.0,61.3,52.3,54.1,50.9,46.8,90,71,32,30.07,29.99,16,4,17,0.00
2012-5-8,66.6,56.7,50.5,54.1,50.7,48.4,93,81,61,30.03,29.94,17,7,18,0.00
2012-5-9,58.5,54.1,50.4,51.8,49.1,47.1,91,83,73,30.02,29.93,22,10,24,0.00
2012-5-10,72.5,58.4,49.6,52.2,48.6,45.7,88,72,45,29.98,29.89,15,6,18,0.00
2012-5-11,68.5,57.1,50.7,54.1,49.9,47.1,93,78,50,30.04,29.91,17,6,18,0.00
2012-5-12,62.8,53.9,49.3,52.5,49.4,47.7,96,86,64,30.11,30.03,16,6,18,0.00
2012-5-13,59.2,53.9,50.2,50.7,48.9,47.3,94,84,71,30.15,30.08,26,10,26,0.00
2012-5-14,64.9,58.7,54.1,52.0,49.8,46.8,87,73,54,30.14,30.07,17,6,19,0.00
2012-5-15,61.0,54.4,50.2,53.1,49.8,48.0,93,85,72,30.11,30.03,19,7,19,0.00
2012-5-16,54.9,51.6,50.0,51.6,49.0,47.7,95,91,86,30.10,29.99,27,9,28,0.00
2012-5-17,66.4,55.1,50.2,52.9,48.9,45.1,93,80,55,30.01,29.88,22,9,29,0.00
2012-5-18,62.1,54.8,50.5,52.0,48.2,45.7,86,79,65,30.03,29.95,21,8,23,0.00
2012-5-19,63.9,55.7,50.2,52.0,48.1,45.3,87,76,53,30.05,29.98,20,8,22,0.00
2012-5-20,65.7,57.8,52.2,55.0,50.2,46.9,92,76,52,30.06,29.96,19,7,20,0.00
2012-5-21,66.6,57.6,50.9,56.7,52.7,49.3,95,84,66,30.15,30.05,21,8,22,0.00
2012-5-22,70.5,60.0,52.5,55.0,51.5,46.9,96,76,45,30.17,30.09,24,7,27,0.00
2012-5-23,69.4,60.6,53.2,50.2,47.5,43.9,85,64,42,30.09,29.95,30,8,30,0.00
2012-5-24,67.5,59.0,52.2,49.1,45.5,42.4,75,62,47,29.97,29.76,39,10,39,0.00
2012-5-25,62.1,55.8,50.5,50.2,43.0,38.3,83,63,46,29.89,29.77,22,8,23,0.02
2012-5-26,62.2,54.8,50.9,52.0,48.8,47.5,90,81,68,30.14,29.88,17,8,22,0.00
2012-5-27,59.9,55.0,51.6,51.3,48.7,45.1,87,80,65,30.21,30.12,18,6,18,0.00
2012-5-28,62.1,56.2,51.1,51.3,48.6,42.3,93,76,58,30.13,30.05,19,6,19,0.00
2012-5-29,63.1,54.5,50.0,53.1,48.7,46.0,88,81,62,30.13,30.06,17,8,18,0.00
2012-5-30,61.2,54.3,50.4,54.0,49.9,47.8,92,85,70,30.16,30.06,21,10,22,0.00
2012-5-31,68.7,57.6,51.1,54.9,51.1,48.0,91,80,56,30.10,29.91,18,8,21,0.00
2012-6-1,62.1,56.9,52.3,54.7,52.7,50.5,94,86,76,29.92,29.82,23,10,28,0.00
2012-6-2,64.6,56.9,51.3,56.1,52.8,49.3,95,87,72,30.01,29.87,25,10,25,0.00
2012-6-3,63.9,56.2,50.4,54.5,51.2,48.7,95,84,68,30.01,29.93,20,8,20,0.00
2012-6-4,61.2,56.5,53.1,55.8,51.1,45.1,95,83,67,30.17,29.95,28,10,29,0.06
2012-6-5,65.8,57.4,51.4,46.8,44.1,39.9,80,63,41,30.24,30.16,22,9,24,0.00
2012-6-6,70.0,59.2,49.6,51.8,45.8,42.1,80,62,39,30.17,30.01,13,5,14,0.00
2012-6-7,71.1,59.6,51.8,56.1,51.1,47.3,88,74,52,30.07,30.02,19,7,19,0.00
2012-6-8,71.4,59.8,52.5,52.3,47.5,41.2,91,67,35,30.04,29.96,25,8,26,0.00
2012-6-9,75.6,62.0,50.7,53.2,44.8,34.7,75,56,25,30.05,29.91,17,4,18,0.00
2012-6-10,83.1,68.2,57.7,53.8,47.2,30.2,80,51,15,29.94,29.89,19,4,22,0.00
2012-6-11,72.7,61.5,55.9,55.6,51.4,47.3,83,71,44,29.99,29.92,23,6,25,0.00
2012-6-12,73.8,60.2,53.8,57.7,53.0,50.0,89,78,53,30.01,29.93,20,7,27,0.00
2012-6-13,54.3,52.1,51.1,51.4,49.9,49.1,94,92,89,29.96,29.92,16,9,21,0.00
2012-6-19,64.6,60.3,54.7,53.6,51.9,49.6,88,74,65,29.97,29.87,16,-13,17,0.00
2012-6-20,71.8,59.9,53.2,57.0,52.6,50.0,90,78,51,29.89,29.84,24,7,24,0.00
2012-6-21,60.3,54.8,50.5,52.2,49.9,47.8,93,84,73,30.01,29.86,28,11,28,0.00
2012-6-22,60.6,55.3,51.4,53.8,50.5,46.4,93,84,75,30.03,29.91,19,8,19,0.00
2012-6-23,64.0,57.8,52.9,51.1,48.5,45.1,84,72,55,30.00,29.91,23,10,24,0.00
2012-6-24,64.2,57.9,49.8,51.3,47.9,44.4,85,70,51,30.09,29.99,21,7,21,0.00
2012-6-25,64.2,58.9,52.2,53.1,50.4,44.1,86,74,63,30.14,30.08,23,8,24,0.00
2012-6-26,73.8,61.7,50.7,53.1,48.9,45.7,84,64,42,30.12,29.94,16,5,19,0.00
2012-6-27,67.5,59.7,54.9,55.6,53.0,50.9,88,79,59,30.00,29.92,19,7,21,0.00
2012-6-28,67.3,59.2,54.5,57.6,54.1,51.4,92,83,69,30.13,29.99,18,8,19,0.00
2012-6-29,66.9,60.5,55.6,57.7,55.7,53.6,95,85,71,30.15,30.06,18,7,20,0.00
2012-6-30,70.3,62.1,56.1,62.1,58.1,54.5,95,87,74,30.08,29.98,15,6,18,0.00
2012-7-1,66.6,61.0,56.8,59.9,57.0,54.3,92,87,79,30.01,29.91,23,8,23,0.00
2012-7-2,61.2,57.8,55.4,55.2,53.8,51.6,92,87,79,29.95,29.90,25,11,28,0.00
2012-7-3,64.8,57.7,53.2,54.9,52.2,50.0,90,82,67,29.96,29.86,22,11,25,0.00
2012-7-4,63.0,56.4,53.8,54.3,51.8,50.2,92,85,73,29.94,29.86,26,11,27,0.00
2012-7-5,64.6,57.0,52.9,55.2,51.8,49.6,90,83,70,30.04,29.94,26,10,26,0.00
2012-7-6,62.6,56.4,52.5,55.6,52.4,50.2,93,87,75,30.08,30.01,19,10,21,0.00
2012-7-7,68.5,57.0,51.8,56.3,52.7,50.4,96,86,64,30.05,29.97,21,9,23,0.00
2012-7-8,58.3,54.4,51.6,54.5,51.9,50.0,95,91,85,30.09,30.02,25,11,26,0.00
2012-7-9,60.6,55.3,52.2,54.5,52.2,50.5,95,90,80,30.11,30.00,23,11,23,0.00
2012-7-10,66.6,56.7,51.1,55.8,52.5,49.6,96,86,66,30.02,29.87,18,8,18,0.00
2012-7-11,66.4,56.1,51.1,56.7,52.6,50.0,96,89,69,29.94,29.84,19,9,24,0.00
2012-7-12,60.4,54.5,51.3,54.1,51.7,50.2,97,91,80,29.91,29.86,25,12,28,0.00
2012-7-13,60.3,54.6,51.4,54.0,51.4,49.5,94,89,79,29.98,29.90,25,12,27,0.00
2012-7-14,61.0,55.1,52.3,54.5,51.8,50.2,95,89,78,30.01,29.93,24,12,26,0.00
2012-7-15,63.9,57.0,53.1,55.9,53.4,50.7,95,88,74,29.97,29.88,20,8,24,0.00
2012-7-16,59.4,55.7,52.9,54.1,52.5,50.9,96,89,78,29.98,29.87,28,13,32,0.00
2012-7-17,64.4,59.0,55.6,54.3,52.5,50.5,95,80,64,30.06,29.96,21,7,22,0.00
2012-7-18,64.6,59.2,55.8,55.8,52.9,51.3,89,80,66,30.08,30.00,16,5,18,0.00
2012-7-19,67.5,60.6,54.7,58.5,55.2,52.5,95,83,69,30.09,30.02,15,5,17,0.00
2012-7-20,70.0,61.7,56.5,59.0,56.3,54.1,92,83,65,30.14,30.01,15,6,17,0.00
2012-7-21,73.8,62.5,55.0,59.7,56.2,52.9,93,81,57,30.04,29.91,18,7,20,0.00
2012-7-22,62.1,57.0,53.4,55.8,53.3,51.8,95,88,79,29.97,29.90,24,11,27,0.00
2012-7-23,62.2,57.7,54.5,54.9,53.3,52.0,92,85,76,29.99,29.94,29,13,31,0.00
2012-7-24,64.2,59.0,55.9,55.2,53.6,52.2,89,82,70,30.03,29.96,22,9,24,0.00
2012-7-25,63.1,58.4,54.9,55.2,53.5,51.6,90,84,75,30.06,29.99,19,9,23,0.00
2012-7-26,62.2,56.5,53.6,55.2,52.8,51.1,94,88,76,30.05,29.99,23,9,23,0.00
2012-7-27,60.4,55.6,52.9,55.2,52.5,50.5,94,90,81,30.08,30.02,22,10,24,0.00
2012-7-28,64.9,57.5,54.3,57.6,54.0,52.0,94,88,75,30.10,30.03,22,10,23,0.00
2012-7-29,63.3,56.7,53.4,57.4,53.5,51.4,94,89,79,30.10,30.01,22,10,24,0.00
2012-7-30,69.1,59.8,54.3,58.8,55.0,52.3,94,85,67,30.04,29.92,17,8,19,0.00
2012-7-31,61.2,56.8,54.9,56.3,53.4,52.0,92,89,79,30.05,29.96,22,11,26,0.00
2012-8-1,63.1,56.3,53.6,55.8,53.1,51.8,94,89,75,30.11,30.01,25,10,26,0.00
2012-8-2,62.8,55.9,53.1,55.6,53.0,51.4,95,90,76,30.06,29.93,23,10,24,0.00
2012-8-3,57.9,54.3,52.2,53.6,52.0,50.7,96,92,84,29.97,29.87,28,12,28,0.00
2012-8-4,60.6,56.1,51.8,57.2,53.7,50.0,96,92,84,30.03,29.90,20,8,22,0.00
2012-8-5,65.8,60.3,56.8,58.3,56.1,52.9,93,86,73,30.14,30.01,16,6,18,0.00
2012-8-6,70.2,60.5,56.1,58.6,54.9,52.3,89,82,66,30.18,30.07,15,5,18,0.00
2012-8-7,67.8,60.6,55.9,56.8,54.9,53.6,92,82,65,30.11,30.01,19,9,21,0.00
2012-8-8,67.8,59.5,55.8,57.4,54.3,52.7,91,83,63,30.06,29.95,22,8,24,0.00
2012-8-9,66.9,58.1,53.2,57.9,54.0,51.8,96,87,69,30.00,29.88,21,8,22,0.00
2012-8-10,63.3,56.9,52.9,56.5,53.6,51.3,96,89,78,29.90,29.80,25,9,25,0.00
2012-8-11,64.8,56.5,52.2,57.2,53.2,50.7,96,89,73,29.88,29.78,19,8,22,0.00
2012-8-12,61.5,55.2,52.0,55.6,52.7,50.9,96,91,80,29.92,29.83,21,9,21,0.00
2012-8-13,65.8,56.6,52.3,57.4,53.6,50.9,96,90,72,29.92,29.82,20,9,21,0.00
2012-8-14,63.3,57.0,52.5,57.6,54.5,51.4,97,91,81,29.88,29.83,22,9,23,0.00
2012-8-15,62.1,57.8,55.2,55.8,53.9,52.7,96,87,77,29.95,29.85,23,8,25,0.00
2012-8-16,64.0,58.2,54.7,57.7,54.8,53.2,96,89,76,30.02,29.92,18,7,20,0.00
2012-8-17,63.3,58.2,54.0,57.7,54.9,52.5,95,89,80,30.05,29.96,23,9,23,0.00
2012-8-18,61.2,57.6,54.1,56.1,54.4,52.2,94,89,82,30.02,29.95,22,10,25,0.00
2012-8-19,59.4,55.0,52.3,55.4,52.7,50.9,96,92,86,30.04,29.94,24,11,26,0.00
2012-8-20,57.9,54.2,51.6,54.1,52.0,50.2,95,92,86,30.01,29.91,25,11,27,0.00
2012-8-21,58.5,55.2,52.3,55.0,52.8,50.7,96,92,85,29.99,29.90,24,12,27,0.00
2012-8-22,58.5,55.3,52.5,55.0,53.1,51.1,96,92,86,30.00,29.93,26,11,27,0.00
2012-8-23,60.3,55.6,51.3,56.1,53.5,49.8,97,93,86,30.01,29.90,22,10,25,0.00
2012-8-24,61.9,56.2,53.8,54.9,52.9,51.6,94,89,77,29.96,29.89,24,10,24,0.00
2012-8-25,58.1,54.7,52.0,53.6,52.0,50.7,96,91,83,29.94,29.87,24,10,25,0.00
2012-8-26,65.7,59.7,54.9,54.3,52.8,51.1,91,78,65,30.04,29.90,19,7,22,0.00
2012-8-27,71.4,62.2,55.6,61.0,56.7,52.7,92,83,67,30.10,29.99,11,4,13,0.00
2012-8-28,72.0,63.7,57.4,59.0,56.0,51.1,92,77,55,30.07,29.97,14,5,15,0.00
2012-8-29,75.0,62.7,55.8,59.0,55.3,52.9,93,78,53,29.99,29.83,14,5,18,0.00
2012-8-30,58.3,55.7,53.6,54.3,53.1,51.8,95,91,84,29.90,29.82,25,11,28,0.00
2012-8-31,63.1,57.1,54.3,54.7,52.7,51.1,93,85,73,30.01,29.89,21,8,23,0.00
2012-9-1,60.8,56.3,52.7,53.6,52.2,50.7,95,86,75,30.09,30.01,19,8,20,0.00
2012-9-2,67.8,57.7,53.2,57.7,53.8,51.6,96,87,65,30.04,29.94,15,5,16,0.00
2012-9-3,67.5,57.6,51.6,57.0,53.7,50.2,97,88,62,30.02,29.94,18,7,20,0.00
2012-9-4,61.0,55.0,50.9,55.6,52.4,49.8,97,91,81,30.09,30.00,21,8,22,0.00
2012-9-5,61.0,56.0,53.1,54.9,53.0,51.3,94,90,78,30.06,29.97,20,6,26,0.00
2012-9-6,63.5,57.4,54.1,54.9,52.4,50.9,91,84,72,30.07,29.99,16,5,17,0.00
2012-9-7,66.0,58.2,51.3,55.8,52.4,48.4,90,82,66,30.14,30.04,15,4,17,0.00
2012-9-8,64.0,58.3,55.0,55.4,52.9,51.1,91,82,71,30.12,30.00,20,8,20,0.00
2012-9-9,67.3,59.1,53.4,58.1,53.5,50.5,91,82,68,30.05,29.93,20,8,21,0.00
2012-9-10,67.5,58.7,54.5,57.4,54.1,52.0,93,85,68,29.99,29.86,19,8,22,0.00
2012-9-11,64.6,57.7,54.1,56.8,53.7,51.4,95,87,75,30.01,29.88,18,8,21,0.00
2012-9-12,64.4,57.3,54.1,57.4,54.2,52.2,97,90,75,30.14,30.00,15,6,17,0.00
2012-9-13,64.8,57.2,53.2,57.4,54.3,52.3,97,90,74,30.15,30.05,17,7,18,0.00
2012-9-14,64.2,57.0,54.0,56.7,53.9,52.3,95,89,75,30.16,30.05,20,8,21,0.00
2012-9-15,63.0,55.5,52.2,55.6,52.1,49.8,96,88,73,30.16,30.04,18,7,20,0.00
2012-9-16,60.6,54.5,51.1,54.3,51.5,49.5,96,90,78,30.11,30.01,20,6,20,0.00
2012-9-17,61.3,56.1,52.7,54.0,51.3,49.6,92,84,75,30.12,30.03,17,7,18,0.00
2012-9-18,64.0,56.3,51.1,55.8,50.9,47.3,89,83,68,30.17,30.06,17,5,17,0.00
2012-9-19,64.9,57.7,54.5,55.4,52.7,50.9,90,84,68,30.16,30.07,19,7,20,0.00
2012-9-20,65.8,58.0,53.4,54.5,52.2,50.2,91,81,64,30.12,30.01,18,8,20,0.00
2012-9-21,65.1,58.2,53.4,55.4,52.8,50.5,92,83,67,30.05,29.93,18,6,18,0.00
2012-9-22,68.5,58.2,52.7,55.6,52.7,50.2,94,83,58,29.99,29.91,17,5,18,0.00
2012-9-23,64.8,56.7,52.5,56.3,53.1,51.1,96,88,71,30.01,29.94,23,6,25,0.01
2012-9-24,64.2,56.9,52.0,56.3,53.3,50.2,96,88,74,30.03,29.92,17,6,19,0.01
2012-9-25,61.5,55.3,52.9,55.9,53.1,51.3,96,92,82,29.99,29.90,20,8,22,0.00
2012-9-26,59.4,54.6,51.6,53.8,51.8,50.5,97,91,82,29.96,29.88,20,9,22,0.00
2012-9-27,64.6,55.2,51.4,56.8,52.7,50.4,97,92,75,29.99,29.88,15,6,17,0.00
2012-9-28,59.5,54.3,50.7,55.4,52.4,49.8,97,93,84,30.03,29.92,18,7,19,0.00
2012-9-29,63.3,55.7,52.3,56.3,53.0,50.9,96,91,77,30.10,30.01,17,6,20,0.00
2012-9-30,81.3,62.7,51.4,59.5,55.1,50.5,97,79,45,30.12,29.99,12,4,13,0.01
2012-10-1,91.6,68.9,57.2,58.6,54.3,46.9,91,64,23,30.05,29.92,8,3,9,0.00
2012-10-2,95.2,71.1,60.3,59.7,52.9,41.0,79,56,22,29.93,29.80,8,2,9,0.00
2012-10-3,73.4,63.7,58.3,59.9,56.4,54.0,91,78,53,30.04,29.84,24,6,25,0.00
2012-10-4,63.0,59.7,57.7,55.6,54.5,52.9,89,83,75,30.19,30.04,24,10,26,0.00
2012-10-5,68.2,61.1,57.2,58.6,55.6,53.4,92,82,67,30.20,30.11,19,5,19,0.00
2012-10-6,68.4,59.9,53.2,57.6,53.4,50.5,97,80,59,30.12,30.01,13,4,14,0.00
2012-10-7,65.7,58.2,51.4,56.5,52.5,48.4,92,82,68,30.07,29.98,14,4,14,0.00
2012-10-8,64.9,58.8,53.8,57.2,53.8,50.0,92,84,71,30.09,30.04,20,5,21,0.00
2012-10-9,66.4,59.1,55.4,56.3,54.3,52.3,93,84,67,30.08,29.98,12,3,13,0.00
2012-10-10,64.2,58.1,54.1,55.9,53.5,51.6,92,85,68,30.02,29.92,18,5,20,0.01
2012-10-11,57.0,55.5,54.1,52.7,51.7,50.2,90,87,81,30.02,29.94,19,6,20,0.02
2012-10-12,59.4,56.7,53.1,52.9,50.7,48.6,88,81,74,30.28,30.00,13,3,13,0.00
2012-10-13,70.7,58.8,50.2,57.6,52.7,47.3,93,81,52,30.36,30.21,12,4,14,0.00
2012-10-14,65.8,59.1,55.4,59.5,56.7,54.3,97,92,77,30.27,30.12,12,4,12,0.00
2012-10-15,72.1,61.6,56.7,60.4,57.8,55.6,97,88,60,30.15,30.01,13,4,15,0.00
2012-10-16,71.4,64.4,60.3,64.0,60.2,57.0,95,87,73,30.04,29.91,14,4,14,0.00
2012-10-17,81.7,65.2,54.9,60.3,53.4,41.2,94,69,31,29.97,29.85,9,2,9,0.00
2012-10-18,82.0,70.5,60.1,64.2,51.1,30.9,90,54,21,30.06,29.91,25,7,26,0.00
2012-10-19,65.5,61.4,56.1,62.4,59.2,54.1,97,93,84,30.10,29.97,21,7,22,0.00
2012-10-20,66.7,58.5,54.1,57.6,53.6,48.6,95,84,55,29.98,29.84,18,7,20,0.00
2012-10-21,65.1,56.2,52.2,51.6,47.3,39.4,88,73,40,29.99,29.88,18,7,20,0.04
2012-10-22,60.3,55.7,51.4,54.0,50.7,46.9,94,84,68,29.99,29.75,25,9,29,0.51
2012-10-23,60.4,55.2,50.9,51.3,48.2,41.2,92,78,52,30.10,29.98,14,4,17,0.78
2012-10-24,61.2,56.5,51.1,53.6,50.2,46.6,89,80,67,30.27,30.06,18,7,20,0.08
2012-10-25,65.8,57.5,52.3,52.2,50.5,46.0,92,79,55,30.32,30.24,18,5,20,0.01
2012-10-26,70.9,59.1,50.9,55.4,48.3,38.8,86,70,36,30.29,30.14,11,3,11,0.00
2012-10-27,76.5,62.1,53.4,58.8,55.4,51.1,94,80,49,30.14,29.99,11,2,12,0.00
2012-10-28,75.9,61.1,55.0,61.0,56.7,53.4,97,86,56,30.08,29.99,15,3,15,0.00
2012-10-29,66.4,57.5,54.1,59.2,55.4,53.2,98,93,77,30.17,30.07,12,3,13,0.00
2012-10-30,62.1,56.5,52.9,57.4,54.7,52.0,98,94,82,30.14,30.01,11,5,15,0.00
2012-10-31,61.9,58.9,56.8,57.6,55.8,54.7,96,90,78,30.06,30.01,15,6,19,0.13
2012-11-1,63.5,58.7,52.3,58.3,56.1,48.2,97,91,80,30.12,30.03,9,3,10,0.28
2012-11-2,64.9,55.4,47.1,54.1,49.7,44.4,91,82,64,30.15,30.07,9,2,10,0.00
2012-11-3,72.7,60.4,50.5,56.3,51.7,46.4,89,74,46,30.19,30.11,11,2,14,0.00
2012-11-4,78.1,63.0,53.4,59.2,55.1,50.5,92,77,44,30.25,30.17,12,2,12,0.00
2012-11-5,79.2,67.6,56.8,58.5,55.4,50.4,92,67,45,30.19,30.07,18,5,18,0.00
2012-11-6,80.1,64.8,55.0,60.4,56.1,51.4,95,75,48,30.13,30.03,11,3,12,0.00
2012-11-7,57.6,55.5,53.8,55.4,53.3,49.8,96,92,86,30.11,29.97,13,6,18,0.00
2012-11-8,57.0,52.8,48.7,50.2,43.9,39.4,88,72,61,30.01,29.93,22,8,23,0.08
2012-11-9,55.9,49.0,41.9,44.2,41.2,35.2,93,76,47,30.04,29.94,16,4,18,0.02
2012-11-10,57.4,50.0,43.7,42.1,40.0,36.0,83,69,47,30.30,30.04,15,3,16,0.00
2012-11-11,58.5,48.6,39.0,43.5,39.4,35.6,90,72,50,30.43,30.30,12,3,14,0.00
2012-11-12,60.6,50.9,42.3,41.9,38.1,33.1,85,64,36,30.43,30.31,13,4,14,0.00
2012-11-13,66.6,56.7,45.0,42.3,39.5,35.6,85,55,35,30.33,30.14,18,5,19,0.00
2012-11-14,67.8,59.8,54.1,50.2,46.1,40.8,83,61,44,30.17,30.06,19,5,21,0.00
2012-11-15,67.3,57.1,49.5,53.1,48.0,43.2,85,73,48,30.09,30.00,18,2,22,0.00
2012-11-16,63.0,55.9,50.5,56.1,52.0,46.0,94,87,68,30.05,29.91,12,2,12,0.22
2012-11-17,58.8,57.0,54.5,56.5,54.6,49.3,96,92,82,30.06,29.84,17,6,19,0.42
2012-11-18,58.6,55.0,49.3,52.0,49.0,44.1,94,81,60,30.22,30.06,12,2,14,0.36
2012-11-19,64.9,58.3,53.6,52.7,48.8,44.4,81,71,54,30.28,30.20,12,4,14,0.00
2012-11-20,62.6,58.7,55.8,57.6,52.8,48.4,95,81,71,30.20,30.06,23,9,24,0.43
2012-11-21,63.3,59.0,56.3,57.4,52.5,46.4,97,80,58,30.22,30.08,13,5,14,0.85
2012-11-22,63.9,51.6,46.2,50.2,46.1,43.5,90,83,52,30.32,30.23,7,2,7,0.00
2012-11-23,64.6,52.3,47.3,48.6,46.3,44.6,92,82,55,30.32,30.22,15,5,20,0.00
2012-11-24,65.8,53.8,47.7,50.5,49.1,45.7,94,85,57,30.23,30.09,9,4,11,0.00
2012-11-25,58.8,52.4,48.2,53.4,50.4,46.8,98,93,82,30.09,29.98,7,2,10,0.00
2012-11-26,57.4,50.6,47.3,52.9,48.9,46.2,98,94,85,30.13,30.03,9,1,10,0.02
2012-11-27,60.4,57.1,49.6,51.3,50.4,48.7,97,79,71,30.14,30.05,9,2,11,0.00
2012-11-28,61.9,58.3,56.1,56.8,52.3,48.2,95,81,70,30.09,29.89,30,9,30,0.62
2012-11-29,60.8,59.2,57.0,57.2,53.3,51.1,91,81,71,30.08,29.92,22,11,25,0.12
2012-11-30,57.6,57.6,57.6,56.1,56.1,56.1,95,95,95,29.93,29.93,12,12,17,2.00
2012-12-2,63.1,59.7,53.8,59.7,56.7,45.9,97,90,75,30.10,29.81,22,13,33,0.50
2012-12-3,57.4,53.8,49.5,50.0,48.6,46.2,89,83,75,30.25,30.21,8,2,8,0.00
2012-12-4,59.2,56.3,52.0,52.5,51.5,49.5,91,84,77,30.24,30.21,5,1,6,0.00
2012-12-5,60.4,57.9,56.8,59.0,55.8,54.3,95,93,91,30.18,30.14,8,2,9,0.56
2012-12-6,56.1,53.1,50.2,52.5,49.5,47.1,92,88,84,30.19,30.15,10,2,10,0.00
2012-12-7,54.7,51.0,45.9,49.6,46.9,42.4,88,86,83,30.14,30.12,5,2,5,0.00
2012-12-9,66.7,53.9,45.0,47.5,44.7,41.5,91,72,46,30.23,30.15,9,1,9,0.00
2012-12-10,64.8,57.7,49.5,48.7,44.1,42.6,83,61,53,30.28,30.16,15,5,18,0.00
2012-12-11,53.8,50.5,44.1,50.0,47.5,41.5,94,90,85,30.15,29.91,15,7,18,0.00
2012-12-12,54.5,51.7,50.2,44.2,42.4,39.7,80,71,58,29.95,29.89,14,8,14,0.05
2012-12-13,52.3,45.8,38.8,41.2,37.8,36.1,93,75,57,29.96,29.90,11,4,16,0.00
2012-12-14,50.2,44.5,39.7,42.6,39.4,35.6,90,83,64,30.07,29.90,4,1,8,0.00
2012-12-15,46.8,43.1,37.8,42.8,40.2,36.0,94,89,86,30.14,30.06,2,0,4,0.02
2012-12-16,54.1,47.4,44.8,49.8,43.9,41.7,93,88,83,30.16,30.07,11,3,12,0.01
2012-12-17,55.2,53.2,50.7,52.7,48.5,44.6,97,84,72,30.06,30.02,16,10,21,0.06
2012-12-18,51.6,44.9,41.7,33.8,31.9,27.5,72,61,39,30.25,30.06,20,6,26,0.00
2012-12-19,52.2,46.0,38.1,32.2,29.2,18.1,74,53,28,30.35,30.28,5,1,6,0.00
2012-12-20,56.1,48.3,38.5,41.7,34.0,27.0,68,57,51,30.26,30.05,22,7,23,0.00
2012-12-21,53.8,52.2,49.3,50.9,45.2,37.0,94,78,59,30.03,29.92,25,13,33,0.02
2012-12-22,52.0,51.9,51.8,49.5,49.2,48.9,91,90,90,29.90,29.89,14,8,17,0.73
2012-12-23,53.8,51.2,49.6,51.6,48.6,45.7,95,91,86,30.06,29.90,21,8,25,0.02
2012-12-24,54.1,47.4,43.3,45.3,42.4,39.2,95,83,58,30.27,30.08,9,2,13,0.03
2012-12-25,50.5,45.8,42.6,48.2,42.3,38.3,94,88,75,30.21,29.80,28,3,28,0.51
2012-12-26,54.7,49.7,45.7,46.6,43.8,39.7,90,80,68,30.16,29.91,25,7,26,0.56
2012-12-27,54.7,47.0,41.5,43.0,40.1,38.1,90,77,56,30.23,30.14,11,2,11,0.00
2012-12-28,48.0,43.4,38.7,40.8,39.1,35.4,91,85,74,30.23,30.08,22,4,25,0.03
2012-12-29,52.9,45.7,41.7,42.6,39.8,37.8,89,80,65,30.13,30.06,24,6,25,0.07
2012-12-30,54.0,44.6,36.7,42.4,38.1,34.5,94,79,54,30.23,30.10,13,3,13,0.00
2012-12-31,51.6,44.5,35.4,39.2,34.8,29.5,83,69,51,30.35,30.23,9,2,11,0.00
2013-1-1,52.2,45.5,39.9,38.5,34.0,28.2,85,65,44,30.33,30.26,31,6,34,0.00